createdAt,value
2018-10-19T00:00:03.991Z,53.27
2018-10-19T00:02:33.353Z,57.00
2018-10-19T00:05:02.787Z,46.95
2018-10-19T00:07:32.265Z,54.48
2018-10-19T00:10:01.632Z,46.35
2018-10-19T00:12:31.048Z,47.70
2018-10-19T00:15:00.448Z,50.50
2018-10-19T00:17:29.853Z,48.68
2018-10-19T00:19:59.345Z,48.00
2018-10-19T00:22:28.719Z,47.00
2018-10-19T00:24:58.184Z,46.90
2018-10-19T00:27:27.683Z,49.48
2018-10-19T00:29:57.119Z,47.50
2018-10-19T00:32:26.519Z,48.03
2018-10-19T00:34:55.957Z,52.23
2018-10-19T00:37:25.316Z,44.57
2018-10-19T00:39:54.707Z,46.10
2018-10-19T00:42:24.135Z,46.45
2018-10-19T00:44:53.557Z,51.13
2018-10-19T00:47:22.956Z,52.83
2018-10-19T00:49:52.373Z,48.05
2018-10-19T00:52:21.825Z,47.33
2018-10-19T00:54:53.364Z,51.00
2018-10-19T00:57:22.903Z,46.90
2018-10-19T00:59:52.349Z,46.55
2018-10-19T01:02:21.871Z,46.08
2018-10-19T01:04:51.295Z,48.95
2018-10-19T01:07:20.778Z,47.67
2018-10-19T01:09:50.248Z,54.05
2018-10-19T01:12:19.716Z,52.93
2018-10-19T01:14:49.080Z,46.70
2018-10-19T01:17:18.448Z,49.53
2018-10-19T01:19:47.835Z,55.38
2018-10-19T01:22:17.265Z,51.08
2018-10-19T01:24:46.627Z,49.48
2018-10-19T01:27:16.163Z,53.33
2018-10-19T01:29:45.656Z,49.60
2018-10-19T01:32:15.165Z,51.23
2018-10-19T01:34:44.588Z,57.53
2018-10-19T01:37:14.015Z,49.67
2018-10-19T01:39:43.442Z,43.37
2018-10-19T01:42:12.853Z,59.90
2018-10-19T01:44:42.316Z,48.45
2018-10-19T01:47:11.734Z,53.85
2018-10-19T01:49:41.135Z,49.00
2018-10-19T01:52:10.544Z,57.03
2018-10-19T01:54:40.028Z,55.30
2018-10-19T01:57:09.489Z,59.70
2018-10-19T01:59:38.733Z,59.58
2018-10-19T02:02:08.163Z,54.38
2018-10-19T02:04:37.509Z,53.92
2018-10-19T02:07:07.228Z,58.85
2018-10-19T02:09:36.678Z,49.15
2018-10-19T02:12:06.459Z,56.15
2018-10-19T02:14:35.860Z,56.10
2018-10-19T02:17:05.629Z,55.30
2018-10-19T02:19:35.180Z,62.35
2018-10-19T02:22:04.594Z,55.05
2018-10-19T02:24:34.020Z,56.73
2018-10-19T02:27:03.470Z,53.83
2018-10-19T02:29:32.827Z,54.10
2018-10-19T02:32:02.254Z,54.80
2018-10-19T02:34:31.658Z,56.50
2018-10-19T02:37:01.073Z,51.77
2018-10-19T02:39:30.501Z,59.05
2018-10-19T02:41:59.922Z,65.72
2018-10-19T02:44:29.368Z,60.95
2018-10-19T02:46:58.783Z,57.23
2018-10-19T02:49:28.199Z,58.60
2018-10-19T02:51:57.613Z,59.50
2018-10-19T02:54:27.092Z,57.75
2018-10-19T02:56:56.521Z,61.33
2018-10-19T02:59:25.885Z,57.50
2018-10-19T03:01:55.306Z,65.78
2018-10-19T03:04:24.784Z,56.58
2018-10-19T03:06:54.277Z,54.93
2018-10-19T03:09:23.720Z,68.72
2018-10-19T03:11:53.149Z,58.30
2018-10-19T03:14:22.579Z,60.88
2018-10-19T03:16:52.076Z,58.78
2018-10-19T03:19:21.455Z,65.32
2018-10-19T03:21:50.879Z,59.75
2018-10-19T03:24:20.390Z,59.45
2018-10-19T03:26:49.869Z,63.83
2018-10-19T03:29:19.366Z,58.60
2018-10-19T03:31:48.785Z,69.47
2018-10-19T03:34:18.312Z,63.73
2018-10-19T03:36:47.751Z,71.65
2018-10-19T03:39:17.204Z,62.35
2018-10-19T03:41:46.529Z,72.05
2018-10-19T03:44:16.015Z,75.90
2018-10-19T03:46:45.449Z,68.22
2018-10-19T03:49:14.928Z,71.55
2018-10-19T03:51:44.332Z,71.07
2018-10-19T03:54:13.826Z,67.90
2018-10-19T03:56:43.269Z,63.92
2018-10-19T03:59:12.782Z,69.72
2018-10-19T04:01:42.138Z,67.25
2018-10-19T04:04:11.589Z,61.20
2018-10-19T04:06:41.005Z,66.40
2018-10-19T04:09:12.425Z,77.87
2018-10-19T04:11:42.036Z,73.52
2018-10-19T04:14:12.785Z,77.70
2018-10-19T04:16:42.207Z,71.60
2018-10-19T04:19:11.571Z,70.17
2018-10-19T04:21:41.012Z,74.12
2018-10-19T04:24:10.387Z,62.53
2018-10-19T04:26:39.744Z,67.82
2018-10-19T04:29:09.120Z,64.30
2018-10-19T04:31:38.443Z,68.72
2018-10-19T04:34:07.846Z,69.17
2018-10-19T04:36:37.272Z,66.15
2018-10-19T04:39:08.996Z,62.08
2018-10-19T04:41:38.559Z,57.67
2018-10-19T04:44:07.982Z,56.55
2018-10-19T04:46:37.695Z,65.12
2018-10-19T04:49:07.161Z,65.42
2018-10-19T04:51:36.531Z,64.15
2018-10-19T04:54:05.930Z,74.87
2018-10-19T04:56:35.366Z,74.15
2018-10-19T04:59:05.115Z,63.48
2018-10-19T05:01:34.530Z,66.55
2018-10-19T05:04:03.923Z,66.40
2018-10-19T05:06:33.449Z,73.62
2018-10-19T05:09:02.846Z,72.25
2018-10-19T05:11:32.313Z,68.47
2018-10-19T05:14:01.778Z,68.90
2018-10-19T05:16:31.081Z,64.85
2018-10-19T05:19:00.503Z,70.42
2018-10-19T05:21:29.948Z,70.47
2018-10-19T05:23:59.424Z,75.80
2018-10-19T05:26:28.936Z,65.65
2018-10-19T05:28:58.951Z,67.53
2018-10-19T05:31:28.392Z,64.50
2018-10-19T05:33:58.666Z,65.57
2018-10-19T05:36:28.024Z,71.22
2018-10-19T05:38:57.417Z,71.90
2018-10-19T05:41:26.843Z,75.15
2018-10-19T05:43:56.249Z,73.78
2018-10-19T05:46:25.619Z,73.57
2018-10-19T05:48:54.982Z,72.62
2018-10-19T05:51:25.263Z,77.12
2018-10-19T05:53:54.725Z,82.82
2018-10-19T05:56:24.676Z,83.85
2018-10-19T05:58:54.155Z,81.75
2018-10-19T06:01:23.555Z,84.03
2018-10-19T06:03:53.011Z,76.02
2018-10-19T06:06:22.425Z,81.25
2018-10-19T06:08:51.808Z,78.12
2018-10-19T06:11:21.189Z,83.05
2018-10-19T06:13:50.562Z,90.20
2018-10-19T06:16:19.888Z,83.33
2018-10-19T06:18:49.331Z,87.88
2018-10-19T06:21:18.725Z,74.58
2018-10-19T06:23:48.126Z,78.80
2018-10-19T06:26:17.511Z,86.25
2018-10-19T06:28:46.867Z,86.35
2018-10-19T06:31:16.274Z,75.52
2018-10-19T06:33:45.737Z,78.70
2018-10-19T06:36:15.088Z,72.67
2018-10-19T06:38:44.474Z,74.92
2018-10-19T06:41:14.007Z,72.87
2018-10-19T06:43:43.359Z,68.65
2018-10-19T06:46:12.834Z,65.00
2018-10-19T06:48:42.228Z,73.50
2018-10-19T06:51:11.651Z,76.22
2018-10-19T06:53:41.091Z,73.35
2018-10-19T06:56:15.321Z,71.05
2018-10-19T06:58:44.692Z,77.90
2018-10-19T07:01:14.055Z,72.40
2018-10-19T07:03:43.459Z,78.70
2018-10-19T07:06:12.962Z,80.72
2018-10-19T07:08:42.364Z,79.80
2018-10-19T07:11:11.877Z,81.57
2018-10-19T07:13:41.151Z,79.87
2018-10-19T07:16:10.555Z,85.65
2018-10-19T07:18:39.991Z,76.65
2018-10-19T07:21:09.502Z,80.80
2018-10-19T07:23:38.959Z,93.47
2018-10-19T07:26:08.466Z,82.60
2018-10-19T07:28:37.797Z,81.97
2018-10-19T07:31:07.301Z,88.27
2018-10-19T07:33:36.725Z,92.22
2018-10-19T07:36:06.632Z,87.15
2018-10-19T07:38:36.031Z,80.65
2018-10-19T07:41:05.529Z,95.35
2018-10-19T07:43:34.916Z,92.15
2018-10-19T07:46:04.277Z,84.42
2018-10-19T07:48:33.827Z,93.82
2018-10-19T07:51:03.099Z,93.30
2018-10-19T07:53:32.605Z,85.72
2018-10-19T07:56:02.079Z,91.20
2018-10-19T07:58:31.509Z,96.63
2018-10-19T08:01:01.188Z,87.12
2018-10-19T08:03:30.587Z,94.22
2018-10-19T08:06:00.291Z,94.58
2018-10-19T08:08:29.781Z,82.70
2018-10-19T08:10:59.274Z,93.97
2018-10-19T08:13:28.788Z,86.00
2018-10-19T08:15:58.267Z,91.90
2018-10-19T08:18:27.747Z,94.22
2018-10-19T08:20:57.152Z,94.35
2018-10-19T08:23:26.571Z,90.47
2018-10-19T08:25:56.106Z,98.78
2018-10-19T08:28:25.499Z,97.08
2018-10-19T08:30:54.997Z,101.97
2018-10-19T08:33:24.436Z,92.20
2018-10-19T08:35:54.009Z,99.58
2018-10-19T08:38:23.454Z,100.90
2018-10-19T08:40:53.021Z,93.35
2018-10-19T08:43:22.428Z,105.40
2018-10-19T08:45:51.955Z,96.75
2018-10-19T08:48:21.395Z,104.30
2018-10-19T08:50:50.766Z,109.65
2018-10-19T08:53:20.237Z,102.53
2018-10-19T08:55:49.601Z,98.70
2018-10-19T08:58:19.113Z,112.50
2018-10-19T09:00:48.505Z,102.40
2018-10-19T09:03:17.974Z,104.78
2018-10-19T09:05:47.312Z,107.55
2018-10-19T09:08:16.699Z,101.10
2018-10-19T09:10:46.092Z,95.87
2018-10-19T09:13:15.690Z,97.50
2018-10-19T09:15:45.311Z,97.25
2018-10-19T09:18:14.819Z,107.12
2018-10-19T09:20:44.370Z,101.07
2018-10-19T09:23:14.157Z,96.55
2018-10-19T09:25:51.435Z,99.95
2018-10-19T09:28:20.919Z,107.15
2018-10-19T09:30:50.333Z,106.20
2018-10-19T09:33:19.909Z,105.10
2018-10-19T09:35:49.567Z,94.28
2018-10-19T09:38:19.275Z,108.17
2018-10-19T09:40:48.854Z,99.25
2018-10-19T09:43:18.324Z,100.30
2018-10-19T09:45:47.947Z,106.55
2018-10-19T09:48:17.539Z,103.05
2018-10-19T09:50:47.031Z,100.10
2018-10-19T09:53:16.619Z,100.97
2018-10-19T09:55:47.289Z,105.95
2018-10-19T09:58:16.843Z,97.10
2018-10-19T10:00:51.732Z,99.55
2018-10-19T10:03:22.542Z,97.65
2018-10-19T10:05:52.311Z,103.07
2018-10-19T10:08:24.844Z,99.17
2018-10-19T10:10:54.448Z,104.83
2018-10-19T10:13:23.900Z,92.85
2018-10-19T10:15:53.452Z,93.03
2018-10-19T10:18:22.928Z,93.85
2018-10-19T10:20:53.042Z,93.95
2018-10-19T10:23:22.469Z,92.90
2018-10-19T10:25:52.075Z,93.35
2018-10-19T10:28:21.552Z,101.50
2018-10-19T10:30:50.997Z,92.05
2018-10-19T10:33:20.477Z,100.87
2018-10-19T10:35:49.952Z,85.95
2018-10-19T10:38:19.459Z,97.08
2018-10-19T10:40:48.920Z,98.40
2018-10-19T10:43:18.568Z,91.65
2018-10-19T10:45:47.975Z,94.30
2018-10-19T10:48:17.420Z,96.78
2018-10-19T10:50:46.987Z,98.90
2018-10-19T10:53:16.429Z,98.45
2018-10-19T10:55:45.896Z,100.42
2018-10-19T10:58:15.410Z,94.32
2018-10-19T11:00:44.861Z,96.78
2018-10-19T11:03:14.235Z,97.00
2018-10-19T11:05:43.649Z,104.03
2018-10-19T11:08:13.029Z,100.18
2018-10-19T11:10:42.468Z,89.37
2018-10-19T11:13:12.107Z,91.22
2018-10-19T11:15:41.494Z,99.03
2018-10-19T11:18:10.876Z,91.05
2018-10-19T11:20:40.231Z,100.12
2018-10-19T11:23:09.628Z,87.37
2018-10-19T11:25:39.025Z,89.95
2018-10-19T11:28:08.446Z,89.20
2018-10-19T11:30:37.876Z,101.75
2018-10-19T11:33:07.228Z,92.12
2018-10-19T11:35:36.673Z,91.85
2018-10-19T11:38:06.303Z,89.92
2018-10-19T11:40:36.701Z,100.18
2018-10-19T11:43:06.484Z,100.47
2018-10-19T11:45:36.920Z,90.97
2018-10-19T11:48:06.417Z,90.62
2018-10-19T11:50:35.765Z,88.60
2018-10-19T11:53:05.478Z,87.90
2018-10-19T11:55:35.009Z,95.75
2018-10-19T11:58:04.565Z,85.55
2018-10-19T12:00:33.925Z,88.67
2018-10-19T12:03:03.328Z,91.15
2018-10-19T12:05:32.733Z,97.22
2018-10-19T12:08:02.117Z,83.47
2018-10-19T12:10:31.525Z,88.55
2018-10-19T12:13:01.075Z,80.90
2018-10-19T12:15:30.478Z,82.05
2018-10-19T12:17:59.841Z,80.28
2018-10-19T12:20:29.220Z,89.32
2018-10-19T12:22:58.630Z,95.97
2018-10-19T12:25:28.032Z,88.25
2018-10-19T12:27:57.431Z,85.45
2018-10-19T12:30:26.807Z,87.15
2018-10-19T12:32:56.179Z,92.37
2018-10-19T12:35:25.630Z,86.90
2018-10-19T12:37:55.083Z,82.55
2018-10-19T12:40:24.486Z,85.60
2018-10-19T12:42:53.926Z,84.85
2018-10-19T12:46:40.524Z,86.53
2018-10-19T12:49:10.608Z,73.02
2018-10-19T12:51:40.103Z,77.82
2018-10-19T12:54:10.067Z,84.90
2018-10-19T12:56:39.649Z,79.72
2018-10-19T12:59:09.217Z,81.12
2018-10-19T13:01:38.685Z,83.25
2018-10-19T13:04:08.051Z,83.65
2018-10-19T13:06:37.534Z,79.03
2018-10-19T13:09:11.123Z,91.60
2018-10-19T13:11:40.587Z,74.58
2018-10-19T13:14:10.127Z,81.42
2018-10-19T13:16:39.560Z,80.90
2018-10-19T13:19:09.019Z,81.30
2018-10-19T13:21:38.421Z,77.37
2018-10-19T13:24:07.821Z,75.03
2018-10-19T13:26:37.190Z,77.22
2018-10-19T13:29:06.851Z,73.90
2018-10-19T13:31:36.260Z,77.60
2018-10-19T13:34:05.764Z,78.25
2018-10-19T13:36:35.227Z,84.37
2018-10-19T13:39:06.662Z,78.35
2018-10-19T13:41:36.135Z,75.42
2018-10-19T13:44:05.499Z,74.05
2018-10-19T13:46:35.102Z,73.57
2018-10-19T13:49:04.694Z,71.53
2018-10-19T13:51:34.420Z,70.78
2018-10-19T13:54:04.375Z,73.97
2018-10-19T13:56:34.042Z,78.37
2018-10-19T13:59:03.543Z,67.97
2018-10-19T14:01:32.905Z,70.15
2018-10-19T14:04:02.352Z,69.32
2018-10-19T14:06:31.875Z,67.40
2018-10-19T14:09:01.406Z,72.47
2018-10-19T14:11:30.967Z,79.58
2018-10-19T14:14:00.397Z,72.60
2018-10-19T14:16:29.917Z,66.12
2018-10-19T14:18:59.431Z,69.82
2018-10-19T14:21:28.861Z,73.75
2018-10-19T14:23:58.343Z,72.85
2018-10-19T14:26:27.818Z,79.85
2018-10-19T14:28:57.302Z,73.42
2018-10-19T14:31:27.290Z,70.67
2018-10-19T14:33:56.726Z,68.60
2018-10-19T14:36:26.201Z,77.47
2018-10-19T14:38:55.713Z,67.53
2018-10-19T14:41:25.122Z,79.17
2018-10-19T14:43:54.495Z,75.50
2018-10-19T14:46:23.901Z,76.92
2018-10-19T14:48:53.311Z,71.53
2018-10-19T14:51:22.656Z,77.80
2018-10-19T14:53:52.052Z,81.70
2018-10-19T14:56:21.513Z,70.80
2018-10-19T14:58:51.049Z,71.72
2018-10-19T15:01:20.496Z,72.87
2018-10-19T15:03:50.198Z,76.25
2018-10-19T15:06:19.617Z,74.97
2018-10-19T15:08:49.047Z,79.82
2018-10-19T15:11:18.705Z,75.15
2018-10-19T15:13:47.901Z,68.95
2018-10-19T15:16:17.439Z,80.55
2018-10-19T15:18:46.831Z,87.35
2018-10-19T15:21:16.255Z,75.90
2018-10-19T15:23:45.672Z,76.33
2018-10-19T15:26:15.084Z,76.30
2018-10-19T15:28:44.522Z,85.60
2018-10-19T15:31:13.913Z,72.37
2018-10-19T15:33:43.300Z,84.15
2018-10-19T15:36:12.778Z,70.17
2018-10-19T15:38:42.116Z,66.67
2018-10-19T15:41:11.518Z,73.45
2018-10-19T15:43:40.931Z,75.12
2018-10-19T15:46:10.355Z,72.90
2018-10-19T15:48:39.817Z,68.25
2018-10-19T15:51:09.353Z,71.75
2018-10-19T15:53:38.737Z,72.20
2018-10-19T15:56:08.236Z,65.20
2018-10-19T15:58:37.665Z,61.53
2018-10-19T16:01:07.143Z,68.95
2018-10-19T16:03:36.617Z,65.00
2018-10-19T16:06:06.103Z,63.65
2018-10-19T16:08:35.474Z,74.30
2018-10-19T16:11:06.907Z,57.70
2018-10-19T16:13:36.671Z,64.20
2018-10-19T16:16:06.691Z,70.25
2018-10-19T16:18:36.169Z,65.00
2018-10-19T16:21:05.959Z,67.47
2018-10-19T16:23:35.515Z,72.82
2018-10-19T16:26:05.212Z,68.22
2018-10-19T16:28:34.644Z,66.50
2018-10-19T16:31:04.130Z,67.47
2018-10-19T16:33:33.661Z,67.37
2018-10-19T16:36:03.254Z,60.38
2018-10-19T16:38:32.639Z,61.65
2018-10-19T16:41:02.032Z,72.08
2018-10-19T16:43:33.214Z,63.60
2018-10-19T16:46:04.305Z,74.32
2018-10-19T16:48:33.890Z,70.67
2018-10-19T16:51:03.319Z,61.92
2018-10-19T16:53:33.259Z,68.45
2018-10-19T16:56:02.831Z,60.58
2018-10-19T16:58:32.948Z,64.30
2018-10-19T17:01:02.400Z,74.37
2018-10-19T17:03:31.937Z,71.90
2018-10-19T17:06:01.853Z,64.77
2018-10-19T17:08:31.309Z,66.12
2018-10-19T17:11:00.835Z,67.37
2018-10-19T17:13:30.327Z,71.90
2018-10-19T17:15:59.749Z,88.85
2018-10-19T17:18:29.087Z,68.40
2018-10-19T17:20:58.751Z,68.67
2018-10-19T17:23:28.263Z,68.33
2018-10-19T17:25:57.793Z,63.30
2018-10-19T17:28:27.350Z,74.45
2018-10-19T17:30:56.889Z,69.45
2018-10-19T17:33:26.449Z,72.62
2018-10-19T17:35:55.741Z,69.82
2018-10-19T17:38:25.219Z,78.25
2018-10-19T17:40:54.792Z,73.45
2018-10-19T17:43:24.298Z,75.22
2018-10-19T17:45:53.861Z,68.25
2018-10-19T17:48:23.909Z,69.97
2018-10-19T17:50:54.455Z,67.08
2018-10-19T17:53:24.494Z,67.60
2018-10-19T17:55:54.423Z,73.52
2018-10-19T17:58:24.788Z,70.28
2018-10-19T18:00:54.375Z,68.25
2018-10-19T18:03:23.965Z,60.65
2018-10-19T18:05:53.686Z,74.12
2018-10-19T18:08:23.147Z,75.97
2018-10-19T18:10:52.572Z,76.35
2018-10-19T18:13:22.047Z,69.58
2018-10-19T18:15:51.484Z,76.53
2018-10-19T18:18:20.916Z,71.15
2018-10-19T18:20:50.366Z,75.12
2018-10-19T18:23:21.106Z,68.72
2018-10-19T18:25:50.291Z,64.30
2018-10-19T18:28:19.746Z,76.92
2018-10-19T18:30:49.169Z,74.85
2018-10-19T18:33:19.687Z,72.75
2018-10-19T18:35:49.391Z,68.20
2018-10-19T18:38:18.831Z,81.42
2018-10-19T18:40:48.419Z,78.72
2018-10-19T18:43:17.913Z,70.32
2018-10-19T18:45:47.476Z,71.10
2018-10-19T18:48:19.049Z,69.30
2018-10-19T18:50:48.575Z,67.03
2018-10-19T18:53:17.968Z,71.02
2018-10-19T18:55:47.333Z,73.17
2018-10-19T18:58:16.827Z,71.15
2018-10-19T19:00:46.219Z,79.90
2018-10-19T19:03:15.642Z,70.00
2018-10-19T19:05:45.066Z,69.45
2018-10-19T19:08:14.795Z,74.37
2018-10-19T19:10:44.259Z,72.37
2018-10-19T19:13:18.890Z,76.30
2018-10-19T19:15:48.399Z,76.42
2018-10-19T19:18:18.636Z,76.97
2018-10-19T19:20:48.058Z,73.25
2018-10-19T19:23:17.450Z,81.05
2018-10-19T19:25:53.016Z,78.52
2018-10-19T19:28:22.581Z,67.50
2018-10-19T19:30:52.024Z,67.82
2018-10-19T19:33:26.550Z,77.80
2018-10-19T19:35:55.996Z,71.47
2018-10-19T19:38:27.363Z,75.78
2018-10-19T19:41:01.934Z,74.35
2018-10-19T19:43:31.303Z,74.60
2018-10-19T19:46:00.684Z,75.55
2018-10-19T19:48:35.198Z,68.47
2018-10-19T19:51:05.799Z,76.80
2018-10-19T19:53:35.599Z,76.72
2018-10-19T19:56:05.094Z,68.97
2018-10-19T19:58:34.412Z,70.00
2018-10-19T20:01:03.838Z,78.60
2018-10-19T20:03:33.231Z,76.40
2018-10-19T20:06:02.898Z,69.50
2018-10-19T20:08:32.339Z,76.97
2018-10-19T20:11:01.722Z,83.85
2018-10-19T20:13:31.154Z,76.87
2018-10-19T20:16:00.520Z,70.20
2018-10-19T20:18:29.911Z,80.72
2018-10-19T20:20:59.302Z,78.22
2018-10-19T20:23:28.749Z,72.17
2018-10-19T20:25:58.128Z,76.77
2018-10-19T20:28:27.525Z,80.65
2018-10-19T20:30:56.946Z,73.42
2018-10-19T20:33:26.403Z,87.85
2018-10-19T20:35:55.747Z,83.65
2018-10-19T20:38:26.128Z,68.05
2018-10-19T20:40:55.588Z,75.37
2018-10-19T20:43:25.020Z,86.35
2018-10-19T20:45:54.515Z,70.50
2018-10-19T20:48:23.895Z,77.40
2018-10-19T20:50:53.954Z,74.53
2018-10-19T20:53:23.358Z,71.15
2018-10-19T20:55:52.876Z,78.95
2018-10-19T20:58:22.208Z,79.42
2018-10-19T21:00:51.730Z,92.53
2018-10-19T21:03:21.011Z,80.10
2018-10-19T21:05:50.387Z,83.20
2018-10-19T21:08:19.805Z,81.67
2018-10-19T21:10:49.275Z,78.78
2018-10-19T21:13:18.789Z,73.33
2018-10-19T21:15:48.185Z,83.37
2018-10-19T21:18:17.651Z,84.65
2018-10-19T21:20:46.989Z,84.50
2018-10-19T21:23:16.449Z,86.25
2018-10-19T21:25:45.743Z,85.97
2018-10-19T21:28:15.143Z,81.65
2018-10-19T21:30:44.601Z,78.85
2018-10-19T21:33:14.074Z,82.80
2018-10-19T21:35:43.515Z,82.15
2018-10-19T21:38:12.979Z,79.20
2018-10-19T21:40:42.287Z,83.70
2018-10-19T21:43:11.868Z,94.87
2018-10-19T21:45:41.441Z,82.80
2018-10-19T21:48:10.819Z,94.55
2018-10-19T21:50:40.293Z,89.87
2018-10-19T21:53:09.744Z,92.35
2018-10-19T21:55:39.092Z,85.53
2018-10-19T21:58:08.494Z,90.03
2018-10-19T22:00:41.458Z,80.45
2018-10-19T22:03:10.864Z,90.92
2018-10-19T22:05:40.391Z,86.13
2018-10-19T22:08:09.905Z,84.07
2018-10-19T22:10:39.305Z,96.05
2018-10-19T22:13:08.989Z,85.62
2018-10-19T22:15:38.407Z,85.20
2018-10-19T22:18:07.823Z,90.53
2018-10-19T22:20:37.253Z,88.45
2018-10-19T22:23:07.020Z,88.33
2018-10-19T22:25:36.525Z,81.27
2018-10-19T22:28:06.012Z,81.10
2018-10-19T22:30:35.440Z,85.80
2018-10-19T22:33:05.083Z,92.70
2018-10-19T22:35:34.778Z,89.50
2018-10-19T22:38:04.135Z,83.60
2018-10-19T22:40:33.619Z,92.33
2018-10-19T22:43:03.051Z,88.30
2018-10-19T22:48:01.545Z,80.35
2018-10-19T22:50:31.296Z,84.22
2018-10-19T22:53:01.814Z,84.70
2018-10-19T22:55:31.158Z,89.58
2018-10-19T22:58:00.579Z,82.90
2018-10-19T23:00:30.254Z,81.00
2018-10-19T23:02:59.723Z,74.77
2018-10-19T23:05:29.173Z,80.92
2018-10-19T23:07:58.557Z,80.57
2018-10-19T23:10:27.976Z,89.07
2018-10-19T23:12:57.445Z,80.57
2018-10-19T23:15:26.931Z,88.40
2018-10-19T23:17:56.346Z,89.85
2018-10-19T23:20:25.689Z,93.05
2018-10-19T23:22:55.227Z,78.33
2018-10-19T23:25:24.568Z,89.52
2018-10-19T23:27:53.960Z,93.62
2018-10-19T23:30:23.409Z,85.00
2018-10-19T23:32:52.878Z,81.05
2018-10-19T23:35:22.381Z,94.97
2018-10-19T23:37:51.763Z,101.75
2018-10-19T23:40:21.153Z,89.83
2018-10-19T23:42:50.521Z,90.15
2018-10-19T23:45:20.080Z,85.95
2018-10-19T23:47:49.428Z,81.12
2018-10-19T23:50:18.899Z,88.12
2018-10-19T23:52:48.244Z,88.50
2018-10-19T23:55:17.659Z,85.75
2018-10-19T23:57:47.113Z,82.45
